< < Back
Terminal Aerodrome Forecast


Current Version              Previous Versions:   1  2  3  4  5  6  7  8  9  

Terminal Aerodrome Forecast

609
FTUS42 KCHS 241700
TAFSAV
TAF
KSAV 241732Z 2418/2518 11012G18KT P6SM FEW040
     FM242300 13007KT P6SM FEW040
     FM250700 17007KT P6SM SCT015 BKN035
     FM251400 22012G18KT P6SM FEW035=

Latest METAR

900
SAUS80 KWBC 250600 RRC
MTRSAV
METAR KSAV 250553Z AUTO 14005KT 9SM CLR 19/17 A2994 RMK AO2 SLP138
T01890167 10211 20183 58013 TSNO


USA.gov is the U.S. government's official web portal to all federal, state and local government web resources and services.